createdAt,value
2019-04-16T00:02:07.042Z,32.90
2019-04-16T00:04:56.928Z,32.10
2019-04-16T00:07:36.231Z,33.02
2019-04-16T00:10:08.055Z,30.35
2019-04-16T00:12:53.181Z,32.38
2019-04-16T00:15:21.916Z,31.93
2019-04-16T00:17:50.613Z,32.65
2019-04-16T00:20:19.257Z,34.43
2019-04-16T00:23:01.125Z,33.28
2019-04-16T00:25:29.921Z,33.10
2019-04-16T00:27:59.977Z,33.15
2019-04-16T00:30:28.736Z,34.83
2019-04-16T00:32:57.175Z,35.15
2019-04-16T00:35:26.003Z,36.48
2019-04-16T00:37:55.011Z,34.67
2019-04-16T00:40:26.691Z,34.30
2019-04-16T00:42:55.576Z,34.25
2019-04-16T00:45:24.089Z,33.38
2019-04-16T00:47:53.199Z,36.65
2019-04-16T00:50:22.231Z,33.30
2019-04-16T00:52:50.830Z,31.77
2019-04-16T00:55:19.895Z,34.33
2019-04-16T00:57:49.294Z,33.63
2019-04-16T01:00:18.111Z,32.48
2019-04-16T01:02:47.010Z,31.70
2019-04-16T01:05:15.687Z,32.85
2019-04-16T01:07:44.426Z,29.63
2019-04-16T01:10:13.068Z,30.00
2019-04-16T01:12:41.809Z,28.62
2019-04-16T01:15:10.953Z,31.48
2019-04-16T01:17:39.548Z,30.80
2019-04-16T01:20:11.603Z,30.35
2019-04-16T01:22:39.212Z,26.87
2019-04-16T01:25:08.137Z,28.65
2019-04-16T01:27:40.387Z,28.30
2019-04-16T01:30:10.605Z,29.70
2019-04-16T01:32:42.671Z,29.70
2019-04-16T01:35:12.688Z,30.80
2019-04-16T01:37:42.889Z,29.70
2019-04-16T01:40:13.066Z,32.48
2019-04-16T01:42:41.622Z,32.58
2019-04-16T01:45:10.218Z,31.33
2019-04-16T01:47:38.902Z,26.75
2019-04-16T01:50:12.977Z,27.80
2019-04-16T01:52:38.303Z,29.72
2019-04-16T01:55:06.993Z,29.18
2019-04-16T01:57:35.497Z,28.42
2019-04-16T02:00:08.043Z,28.95
2019-04-16T02:02:37.261Z,31.48
2019-04-16T02:05:06.890Z,29.55
2019-04-16T02:07:35.340Z,30.60
2019-04-16T02:10:07.291Z,30.72
2019-04-16T02:12:35.220Z,30.25
2019-04-16T02:15:05.966Z,31.45
2019-04-16T02:17:34.450Z,32.20
2019-04-16T02:20:06.240Z,33.28
2019-04-16T02:22:33.199Z,30.75
2019-04-16T02:25:02.052Z,33.75
2019-04-16T02:27:30.569Z,33.23
2019-04-16T02:30:02.834Z,35.78
2019-04-16T02:32:29.278Z,33.85
2019-04-16T02:34:57.716Z,35.40
2019-04-16T02:37:26.208Z,33.10
2019-04-16T02:39:54.657Z,34.20
2019-04-16T02:42:23.132Z,33.53
2019-04-16T02:44:51.583Z,32.67
2019-04-16T02:47:20.089Z,34.38
2019-04-16T02:49:48.590Z,31.75
2019-04-16T02:52:37.142Z,35.90
2019-04-16T02:55:19.273Z,32.88
2019-04-16T02:58:06.199Z,34.85
2019-04-16T03:00:42.480Z,35.05
2019-04-16T03:03:24.894Z,34.15
2019-04-16T03:05:54.644Z,36.68
2019-04-16T03:08:23.147Z,34.45
2019-04-16T03:10:51.704Z,31.15
2019-04-16T03:13:23.090Z,35.10
2019-04-16T03:15:52.143Z,35.88
2019-04-16T03:18:29.490Z,34.35
2019-04-16T03:20:57.993Z,36.08
2019-04-16T03:23:26.573Z,36.03
2019-04-16T03:25:55.081Z,36.80
2019-04-16T03:28:27.382Z,36.77
2019-04-16T03:30:53.935Z,37.83
2019-04-16T03:33:22.536Z,36.77
2019-04-16T03:35:51.015Z,35.68
2019-04-16T03:38:19.539Z,36.77
2019-04-16T03:40:47.999Z,36.55
2019-04-16T03:43:16.555Z,37.85
2019-04-16T03:45:45.049Z,39.13
2019-04-16T03:48:13.583Z,36.38
2019-04-16T03:50:42.133Z,44.08
2019-04-16T03:53:10.835Z,38.00
2019-04-16T03:55:39.485Z,36.85
2019-04-16T03:58:08.048Z,38.95
2019-04-16T04:00:36.523Z,35.70
2019-04-16T04:03:05.109Z,37.83
2019-04-16T04:05:34.903Z,36.23
2019-04-16T04:08:03.982Z,33.08
2019-04-16T04:10:36.775Z,31.50
2019-04-16T04:13:04.881Z,35.92
2019-04-16T04:15:32.891Z,34.30
2019-04-16T04:18:01.468Z,35.43
2019-04-16T04:20:29.982Z,34.45
2019-04-16T04:22:58.490Z,34.03
2019-04-16T04:25:26.999Z,35.00
2019-04-16T04:27:55.562Z,34.80
2019-04-16T04:30:25.641Z,32.95
2019-04-16T04:32:55.472Z,34.50
2019-04-16T04:35:23.948Z,32.45
2019-04-16T04:37:52.484Z,32.23
2019-04-16T04:40:21.067Z,31.62
2019-04-16T04:42:49.588Z,31.55
2019-04-16T04:45:18.110Z,32.00
2019-04-16T04:47:51.201Z,30.48
2019-04-16T04:50:16.801Z,28.90
2019-04-16T04:52:46.149Z,31.27
2019-04-16T04:55:15.271Z,32.98
2019-04-16T04:57:43.858Z,30.25
2019-04-16T05:00:12.455Z,30.43
2019-04-16T05:02:43.656Z,31.50
2019-04-16T05:05:13.085Z,31.68
2019-04-16T05:07:41.517Z,31.73
2019-04-16T05:10:10.048Z,33.15
2019-04-16T05:12:38.494Z,32.10
2019-04-16T05:15:07.102Z,30.72
2019-04-16T05:17:38.445Z,28.30
2019-04-16T05:20:07.278Z,28.65
2019-04-16T05:22:35.731Z,30.95
2019-04-16T05:25:05.437Z,28.52
2019-04-16T05:27:33.960Z,29.98
2019-04-16T05:30:02.431Z,28.15
2019-04-16T05:32:34.006Z,25.08
2019-04-16T05:35:01.134Z,26.27
2019-04-16T05:37:29.597Z,27.10
2019-04-16T05:39:58.967Z,24.52
2019-04-16T05:42:28.039Z,25.10
2019-04-16T05:44:56.687Z,25.95
2019-04-16T05:47:25.200Z,23.15
2019-04-16T05:49:54.453Z,24.65
2019-04-16T05:52:23.947Z,21.77
2019-04-16T05:55:16.793Z,22.25
2019-04-16T05:57:46.508Z,23.27
2019-04-16T06:00:16.835Z,20.35
2019-04-16T06:02:49.616Z,20.40
2019-04-16T06:05:15.498Z,20.40
2019-04-16T06:07:43.963Z,20.15
2019-04-16T06:10:16.697Z,19.02
2019-04-16T06:12:44.914Z,19.37
2019-04-16T06:15:35.867Z,18.98
2019-04-16T06:18:18.329Z,18.55
2019-04-16T06:20:49.363Z,17.62
2019-04-16T06:23:20.586Z,18.55
2019-04-16T06:25:50.727Z,18.80
2019-04-16T06:28:23.708Z,17.73
2019-04-16T06:31:05.682Z,16.77
2019-04-16T06:33:41.036Z,15.15
2019-04-16T06:36:14.084Z,14.83
2019-04-16T06:38:44.204Z,14.80
2019-04-16T06:41:14.846Z,12.43
2019-04-16T06:43:47.513Z,13.00
2019-04-16T06:46:34.226Z,12.50
2019-04-16T06:49:17.627Z,11.83
2019-04-16T06:51:48.295Z,11.57
2019-04-16T06:54:33.391Z,12.40
2019-04-16T06:57:21.777Z,11.77
2019-04-16T07:00:02.425Z,10.90
2019-04-16T07:03:01.855Z,11.07
2019-04-16T07:05:36.709Z,9.60
2019-04-16T07:08:06.870Z,8.97
2019-04-16T07:10:44.392Z,9.07
2019-04-16T07:13:09.957Z,9.07
2019-04-16T07:15:37.459Z,8.40
2019-04-16T07:18:06.311Z,6.80
2019-04-16T07:20:34.949Z,7.83
2019-04-16T07:23:03.402Z,7.57
2019-04-16T07:25:35.107Z,7.03
2019-04-16T07:28:25.063Z,5.97
2019-04-16T07:31:13.252Z,5.80
2019-04-16T07:33:46.008Z,4.93
2019-04-16T07:36:24.169Z,4.57
2019-04-16T07:39:13.134Z,4.60
2019-04-16T07:42:08.547Z,5.50
2019-04-16T07:44:47.143Z,5.33
2019-04-16T07:47:33.662Z,6.20
2019-04-16T07:50:20.022Z,5.17
2019-04-16T07:52:50.146Z,6.00
2019-04-16T07:55:36.784Z,6.10
2019-04-16T07:58:05.330Z,6.53
2019-04-16T08:00:33.911Z,6.77
2019-04-16T08:03:02.667Z,7.07
2019-04-16T08:05:31.213Z,6.63
2019-04-16T08:07:59.752Z,8.37
2019-04-16T08:10:28.213Z,8.53
2019-04-16T08:13:00.468Z,7.53
2019-04-16T08:15:28.473Z,8.00
2019-04-16T08:17:56.964Z,7.90
2019-04-16T08:20:25.410Z,8.03
2019-04-16T08:22:55.542Z,9.20
2019-04-16T08:25:34.203Z,9.00
2019-04-16T08:28:01.350Z,9.57
2019-04-16T08:30:34.564Z,9.43
2019-04-16T08:33:00.211Z,9.53
2019-04-16T08:35:28.654Z,9.57
2019-04-16T08:37:58.517Z,10.23
2019-04-16T08:40:27.360Z,10.83
2019-04-16T08:42:57.555Z,10.10
2019-04-16T08:45:26.029Z,9.70
2019-04-16T08:47:54.461Z,8.87
2019-04-16T08:50:25.882Z,10.60
2019-04-16T08:52:53.146Z,10.60
2019-04-16T08:55:23.590Z,9.57
2019-04-16T08:57:51.787Z,10.00
2019-04-16T09:00:20.303Z,11.40
2019-04-16T09:02:48.795Z,11.00
2019-04-16T09:05:17.360Z,11.73
2019-04-16T09:07:50.615Z,11.27
2019-04-16T09:10:21.687Z,10.77
2019-04-16T09:13:02.511Z,10.87
2019-04-16T09:15:28.965Z,10.63
2019-04-16T09:18:01.847Z,10.47
2019-04-16T09:20:34.650Z,10.10
2019-04-16T09:23:02.364Z,9.87
2019-04-16T09:25:32.519Z,10.03
2019-04-16T09:28:25.905Z,9.87
2019-04-16T09:31:05.212Z,9.57
2019-04-16T09:33:35.389Z,10.80
2019-04-16T09:36:08.797Z,9.40
2019-04-16T09:38:45.187Z,10.13
2019-04-16T09:41:13.448Z,10.27
2019-04-16T09:43:46.212Z,9.17
2019-04-16T09:46:21.292Z,7.90
2019-04-16T09:48:44.871Z,9.50
2019-04-16T09:51:19.025Z,10.60
2019-04-16T09:53:43.548Z,8.80
2019-04-16T09:56:30.587Z,9.90
2019-04-16T09:59:05.208Z,9.93
2019-04-16T10:01:41.233Z,9.13
2019-04-16T10:04:11.530Z,9.17
2019-04-16T10:06:40.023Z,9.50
2019-04-16T10:09:08.599Z,9.17
2019-04-16T10:11:37.495Z,10.90
2019-04-16T10:14:06.205Z,8.57
2019-04-16T10:16:34.917Z,8.90
2019-04-16T10:19:07.636Z,9.33
2019-04-16T10:21:33.636Z,9.67
2019-04-16T10:24:15.969Z,9.13
2019-04-16T10:26:46.156Z,9.03
2019-04-16T10:29:16.308Z,8.80
2019-04-16T10:31:44.959Z,9.67
2019-04-16T10:34:13.556Z,9.73
2019-04-16T10:36:42.092Z,8.37
2019-04-16T10:39:20.986Z,7.60
2019-04-16T10:41:51.097Z,8.00
2019-04-16T10:44:27.326Z,8.40
2019-04-16T10:47:00.252Z,9.80
2019-04-16T10:49:31.121Z,8.30
2019-04-16T10:52:01.391Z,9.53
2019-04-16T10:54:38.299Z,10.13
2019-04-16T10:57:17.407Z,9.10
2019-04-16T10:59:47.552Z,9.67
2019-04-16T11:02:34.078Z,10.97
2019-04-16T11:05:04.366Z,10.67
2019-04-16T11:07:34.499Z,11.00
2019-04-16T11:10:03.714Z,9.57
2019-04-16T11:12:32.268Z,11.00
2019-04-16T11:15:00.787Z,11.50
2019-04-16T11:17:29.379Z,11.53
2019-04-16T11:20:00.038Z,10.70
2019-04-16T11:22:28.153Z,12.33
2019-04-16T11:24:56.713Z,12.13
2019-04-16T11:27:25.226Z,11.93
2019-04-16T11:29:53.683Z,10.93
2019-04-16T11:32:30.145Z,13.20
2019-04-16T11:34:58.697Z,13.40
2019-04-16T11:37:27.232Z,12.27
2019-04-16T11:39:55.753Z,11.60
2019-04-16T11:42:24.203Z,12.33
2019-04-16T11:44:52.775Z,13.00
2019-04-16T11:47:21.347Z,12.87
2019-04-16T11:49:49.862Z,12.80
2019-04-16T11:52:18.360Z,12.80
2019-04-16T11:54:47.712Z,12.47
2019-04-16T11:57:16.199Z,12.93
2019-04-16T11:59:44.719Z,14.07
2019-04-16T12:02:17.572Z,13.63
2019-04-16T12:05:03.640Z,13.70
2019-04-16T12:07:47.162Z,12.53
2019-04-16T12:10:20.105Z,11.37
2019-04-16T12:12:53.003Z,10.57
2019-04-16T12:15:29.395Z,11.20
2019-04-16T12:18:08.578Z,10.57
2019-04-16T12:20:44.731Z,10.83
2019-04-16T12:23:23.651Z,9.87
2019-04-16T12:25:56.723Z,10.60
2019-04-16T12:28:43.517Z,10.00
2019-04-16T12:31:16.688Z,9.70
2019-04-16T12:33:48.328Z,10.10
2019-04-16T12:36:35.052Z,10.30
2019-04-16T12:39:19.779Z,9.53
2019-04-16T12:41:52.573Z,8.50
2019-04-16T12:44:24.503Z,8.90
2019-04-16T12:47:09.822Z,9.43
2019-04-16T12:49:56.709Z,9.40
2019-04-16T12:52:26.915Z,8.80
2019-04-16T12:55:06.148Z,8.00
2019-04-16T12:57:36.355Z,8.30
2019-04-16T13:00:14.210Z,8.50
2019-04-16T13:03:02.814Z,8.60
2019-04-16T13:05:38.423Z,7.60
2019-04-16T13:08:17.300Z,7.60
2019-04-16T13:10:49.870Z,7.30
2019-04-16T13:13:22.972Z,8.03
2019-04-16T13:15:53.065Z,6.60
2019-04-16T13:18:28.917Z,8.20
2019-04-16T13:21:08.493Z,12.10
2019-04-16T13:23:38.663Z,12.30
2019-04-16T13:26:23.682Z,12.10
2019-04-16T13:28:55.134Z,12.10
2019-04-16T13:31:22.452Z,11.63
2019-04-16T13:33:51.103Z,9.27
2019-04-16T13:36:19.639Z,7.77
2019-04-16T13:38:49.725Z,9.67
2019-04-16T13:41:18.273Z,9.23
2019-04-16T13:43:48.427Z,9.07
2019-04-16T13:46:16.997Z,10.40
2019-04-16T13:48:52.870Z,10.77
2019-04-16T13:51:25.721Z,10.13
2019-04-16T13:54:11.940Z,8.77
2019-04-16T13:56:51.595Z,8.73
2019-04-16T13:59:30.255Z,7.80
2019-04-16T14:01:59.092Z,10.37
2019-04-16T14:04:30.896Z,9.40
2019-04-16T14:06:57.966Z,8.23
2019-04-16T14:09:26.499Z,9.63
2019-04-16T14:11:55.045Z,9.70
2019-04-16T14:14:25.246Z,10.87
2019-04-16T14:16:53.787Z,9.07
2019-04-16T14:19:22.365Z,9.03
2019-04-16T14:21:50.856Z,7.23
2019-04-16T14:24:19.415Z,6.70
2019-04-16T14:26:47.884Z,7.03
2019-04-16T14:29:16.378Z,7.87
2019-04-16T14:31:46.115Z,7.83
2019-04-16T14:34:22.789Z,7.83
2019-04-16T14:36:53.274Z,8.63
2019-04-16T14:39:32.046Z,8.10
2019-04-16T14:42:00.615Z,7.80
2019-04-16T14:44:31.574Z,8.07
2019-04-16T14:47:01.995Z,6.90
2019-04-16T14:49:30.643Z,8.13
2019-04-16T14:52:02.025Z,8.50
2019-04-16T14:54:40.021Z,9.67
2019-04-16T14:57:10.977Z,8.93
2019-04-16T14:59:41.498Z,9.13
2019-04-16T15:02:23.448Z,8.77
2019-04-16T15:04:56.920Z,10.50
2019-04-16T15:07:28.298Z,9.60
2019-04-16T15:10:02.839Z,9.27
2019-04-16T15:12:39.290Z,9.00
2019-04-16T15:15:11.737Z,7.70
2019-04-16T15:17:50.554Z,13.63
2019-04-16T15:20:23.520Z,11.97
2019-04-16T15:23:10.273Z,11.00
2019-04-16T15:25:45.927Z,10.30
2019-04-16T15:28:16.142Z,11.30
2019-04-16T15:30:49.118Z,9.33
2019-04-16T15:33:35.638Z,10.50
2019-04-16T15:36:09.969Z,8.30
2019-04-16T15:38:59.090Z,7.87
2019-04-16T15:41:48.954Z,9.70
2019-04-16T15:44:22.501Z,10.23
2019-04-16T15:47:06.920Z,10.80
2019-04-16T15:49:39.836Z,9.73
2019-04-16T15:52:26.337Z,9.70
2019-04-16T15:54:56.526Z,10.63
2019-04-16T15:57:42.870Z,10.10
2019-04-16T16:00:29.774Z,8.90
2019-04-16T16:03:17.771Z,9.07
2019-04-16T16:05:47.992Z,7.70
2019-04-16T16:08:18.177Z,10.07
2019-04-16T16:10:48.385Z,8.97
2019-04-16T16:13:16.851Z,10.70
2019-04-16T16:15:45.327Z,9.40
2019-04-16T16:18:13.961Z,9.63
2019-04-16T16:20:42.443Z,10.33
2019-04-16T16:23:10.910Z,9.80
2019-04-16T16:25:41.414Z,10.07
2019-04-16T16:28:09.649Z,10.53
2019-04-16T16:30:38.188Z,10.43
2019-04-16T16:33:06.822Z,9.30
2019-04-16T16:35:35.344Z,10.00
2019-04-16T16:38:03.930Z,9.73
2019-04-16T16:40:32.418Z,9.23
2019-04-16T16:43:00.955Z,9.10
2019-04-16T16:45:40.074Z,7.53
2019-04-16T16:48:09.031Z,7.37
2019-04-16T16:50:37.555Z,8.50
2019-04-16T16:53:14.373Z,8.27
2019-04-16T16:55:44.683Z,8.03
2019-04-16T16:58:30.969Z,7.10
2019-04-16T17:01:01.775Z,6.40
2019-04-16T17:03:32.124Z,5.83
2019-04-16T17:06:00.604Z,5.93
2019-04-16T17:08:30.231Z,6.07
2019-04-16T17:11:14.078Z,4.90
2019-04-16T17:13:29.663Z,5.00
2019-04-16T17:15:58.211Z,4.33
2019-04-16T17:18:26.831Z,4.17
2019-04-16T17:20:55.844Z,4.47
2019-04-16T17:23:25.751Z,4.60
2019-04-16T17:25:57.858Z,4.13
2019-04-16T17:28:24.836Z,4.80
2019-04-16T17:30:53.576Z,4.20
2019-04-16T17:33:22.154Z,4.20
2019-04-16T17:35:50.697Z,3.97
2019-04-16T17:38:19.260Z,4.43
2019-04-16T17:40:59.481Z,3.97
2019-04-16T17:43:29.078Z,4.70
2019-04-16T17:45:59.272Z,5.30
2019-04-16T17:48:29.426Z,5.50
2019-04-16T17:51:14.883Z,6.90
2019-04-16T17:53:44.987Z,5.27
2019-04-16T17:56:30.216Z,5.87
2019-04-16T17:59:00.452Z,5.50
2019-04-16T18:01:30.613Z,4.77
2019-04-16T18:04:17.021Z,5.20
2019-04-16T18:06:47.120Z,5.40
2019-04-16T18:09:20.191Z,5.17
2019-04-16T18:11:50.328Z,5.50
2019-04-16T18:14:36.782Z,5.10
2019-04-16T18:17:09.844Z,5.07
2019-04-16T18:19:56.419Z,5.40
2019-04-16T18:22:29.583Z,4.87
2019-04-16T18:25:30.827Z,4.70
2019-04-16T18:28:06.867Z,4.80
2019-04-16T18:30:43.011Z,5.87
2019-04-16T18:33:18.945Z,7.37
2019-04-16T18:36:01.093Z,5.73
2019-04-16T18:38:46.086Z,6.73
2019-04-16T18:41:31.421Z,6.10
2019-04-16T18:44:18.215Z,6.00
2019-04-16T18:46:50.832Z,6.73
2019-04-16T18:49:21.019Z,6.90
2019-04-16T18:51:49.664Z,7.37
2019-04-16T18:54:18.220Z,7.50
2019-04-16T18:56:46.883Z,8.03
2019-04-16T18:59:15.549Z,8.80
2019-04-16T19:01:48.236Z,8.07
2019-04-16T19:04:16.948Z,7.63
2019-04-16T19:06:45.549Z,7.40
2019-04-16T19:09:14.115Z,7.00
2019-04-16T19:11:42.814Z,7.60
2019-04-16T19:14:13.154Z,8.43
2019-04-16T19:16:42.658Z,9.20
2019-04-16T19:19:11.388Z,9.23
2019-04-16T19:21:42.419Z,7.70
2019-04-16T19:24:10.485Z,8.50
2019-04-16T19:26:39.051Z,6.30
2019-04-16T19:29:13.359Z,7.13
2019-04-16T19:31:38.247Z,6.77
2019-04-16T19:34:10.212Z,7.47
2019-04-16T19:36:40.228Z,7.23
2019-04-16T19:39:13.719Z,6.33
2019-04-16T19:41:41.250Z,6.60
2019-04-16T19:44:09.711Z,8.37
2019-04-16T19:46:38.313Z,8.53
2019-04-16T19:49:07.079Z,8.10
2019-04-16T19:51:38.015Z,7.73
2019-04-16T19:54:05.961Z,7.70
2019-04-16T19:56:36.836Z,7.10
2019-04-16T19:59:05.558Z,7.57
2019-04-16T20:01:34.162Z,6.80
2019-04-16T20:04:09.747Z,7.67
2019-04-16T20:06:34.182Z,8.23
2019-04-16T20:09:05.819Z,7.43
2019-04-16T20:11:34.648Z,7.20
2019-04-16T20:14:03.602Z,6.90
2019-04-16T20:16:32.664Z,7.80
2019-04-16T20:19:01.437Z,8.03
2019-04-16T20:21:30.324Z,7.07
2019-04-16T20:23:59.127Z,7.30
2019-04-16T20:26:29.374Z,7.37
2019-04-16T20:28:58.386Z,6.13
2019-04-16T20:31:26.927Z,6.43
2019-04-16T20:33:55.616Z,6.83
2019-04-16T20:36:24.180Z,7.73
2019-04-16T20:38:52.810Z,6.50
2019-04-16T20:41:21.426Z,6.20
2019-04-16T20:43:50.136Z,7.40
2019-04-16T20:46:18.779Z,7.00
2019-04-16T20:48:47.641Z,6.80
2019-04-16T20:51:16.429Z,6.30
2019-04-16T20:53:44.994Z,6.27
2019-04-16T20:56:13.657Z,6.67
2019-04-16T20:58:42.277Z,7.97
2019-04-16T21:01:10.872Z,7.30
2019-04-16T21:03:39.494Z,7.30
2019-04-16T21:06:09.623Z,7.20
2019-04-16T21:08:38.380Z,6.50
2019-04-16T21:11:09.100Z,7.03
2019-04-16T21:13:37.224Z,6.77
2019-04-16T21:16:05.810Z,6.83
2019-04-16T21:18:34.354Z,7.10
2019-04-16T21:21:02.887Z,6.67
2019-04-16T21:23:31.861Z,6.70
2019-04-16T21:26:01.748Z,8.00
2019-04-16T21:28:34.846Z,7.83
2019-04-16T21:31:05.025Z,8.60
2019-04-16T21:33:52.297Z,8.40
2019-04-16T21:36:22.364Z,8.33
2019-04-16T21:38:52.530Z,7.37
2019-04-16T21:41:21.011Z,7.87
2019-04-16T21:43:49.551Z,7.33
2019-04-16T21:46:20.397Z,7.57
2019-04-16T21:48:48.304Z,6.60
2019-04-16T21:51:19.512Z,7.13
2019-04-16T21:53:47.019Z,7.63
2019-04-16T21:56:15.519Z,7.57
2019-04-16T21:58:46.654Z,6.30
2019-04-16T22:01:18.819Z,7.43
2019-04-16T22:03:48.966Z,8.37
2019-04-16T22:06:19.878Z,8.63
2019-04-16T22:08:47.680Z,8.67
2019-04-16T22:11:16.119Z,8.67
2019-04-16T22:13:44.562Z,8.87
2019-04-16T22:16:13.062Z,9.57
2019-04-16T22:18:42.323Z,8.83
2019-04-16T22:21:11.271Z,7.73
2019-04-16T22:23:39.835Z,7.00
2019-04-16T22:26:10.841Z,9.30
2019-04-16T22:28:38.480Z,8.93
2019-04-16T22:31:06.949Z,8.63
2019-04-16T22:33:35.406Z,8.37
2019-04-16T22:36:03.950Z,8.97
2019-04-16T22:38:33.536Z,8.07
2019-04-16T22:41:03.687Z,9.63
2019-04-16T22:43:42.729Z,8.73
2019-04-16T22:46:20.349Z,9.37
2019-04-16T22:48:55.654Z,8.20
2019-04-16T22:51:24.727Z,9.37
2019-04-16T22:53:53.238Z,11.27
2019-04-16T22:56:28.196Z,11.50
2019-04-16T22:58:53.548Z,10.50
2019-04-16T23:01:26.393Z,11.07
2019-04-16T23:03:54.958Z,11.77
2019-04-16T23:06:23.478Z,10.50
2019-04-16T23:08:51.917Z,10.47
2019-04-16T23:11:23.304Z,10.90
2019-04-16T23:13:50.685Z,11.37
2019-04-16T23:16:19.218Z,10.57
2019-04-16T23:18:49.465Z,10.20
2019-04-16T23:21:17.872Z,11.30
2019-04-16T23:23:47.748Z,10.03
2019-04-16T23:26:16.559Z,11.13
2019-04-16T23:28:45.028Z,10.50
2019-04-16T23:31:13.503Z,9.90
2019-04-16T23:33:42.032Z,11.93
2019-04-16T23:36:15.393Z,10.30
2019-04-16T23:38:40.929Z,10.43
2019-04-16T23:41:09.404Z,11.63
2019-04-16T23:43:45.424Z,10.83
2019-04-16T23:46:21.187Z,11.37
2019-04-16T23:48:51.292Z,11.27
2019-04-16T23:51:28.649Z,12.00
2019-04-16T23:53:58.841Z,12.30
2019-04-16T23:56:29.005Z,10.63
2019-04-16T23:59:08.632Z,12.40
